Hovedside
METAR-TAF:

METAR-TAF

Lufthavner :

Kota, India

breddegrad: 25-09-36N, lengdegrad: 075-50-44E, høyde over havet: 273 m

Gjeldene værobservasjon

Denne rapporten ble laget for 15 timer og 53 minutter siden, klokken 06:00 UTC
Vind 5 kt fra Vest
Temperatur 39°C
Luftfuktighet 26%
Trykk 1003 hPa
Sikt: 5000 m
Spredte skyer i en høyde av 3000 ft
Brutte skyer i en høyde av 10000 ft
dis,

METAR: VIKO 140600Z 27005KT 5000 HZ SCT030 BKN100 39/16 Q1003 NOSIG

Tid: 03:23 (21:53 UTC)


TAF: fraværende

Værobservasjoner og værvarsel for over 4000 flyplasser (METAR- og TAF-rapporter).

Tilgjengelige stasjoner er representert av de røde og gule prikkene på kartet.

Hold musepekeren over prikken for å se navnet på stasjonen.

Klikk så for å se værobservasjoner og -varsler.

For å forandre kartet kan du klikke på den grønne knappen med svart kryss for å zoome inn, på den grønne knappen med strek for å zoome ut, eller på de grønne pilene for å se tilstøtende kart.


METAR-TAF: